sensor_id;sensor_type;location;lat;lon;timestamp;temperature;humidity
28438;DHT22;15667;52.376;9.708;2023-11-21T00:01:04;8.60;99.90
28438;DHT22;15667;52.376;9.708;2023-11-21T00:03:31;8.70;99.90
28438;DHT22;15667;52.376;9.708;2023-11-21T00:05:56;8.70;99.90
28438;DHT22;15667;52.376;9.708;2023-11-21T00:08:22;8.40;99.90
28438;DHT22;15667;52.376;9.708;2023-11-21T00:10:48;8.60;99.90
28438;DHT22;15667;52.376;9.708;2023-11-21T00:13:14;8.90;99.90
28438;DHT22;15667;52.376;9.708;2023-11-21T00:15:40;8.60;99.90
28438;DHT22;15667;52.376;9.708;2023-11-21T00:18:06;8.60;99.90
28438;DHT22;15667;52.376;9.708;2023-11-21T00:20:32;8.60;99.90
28438;DHT22;15667;52.376;9.708;2023-11-21T00:22:57;8.60;99.90
28438;DHT22;15667;52.376;9.708;2023-11-21T00:25:24;9.20;99.90
28438;DHT22;15667;52.376;9.708;2023-11-21T00:27:50;8.60;99.90
28438;DHT22;15667;52.376;9.708;2023-11-21T00:30:16;8.70;99.90
28438;DHT22;15667;52.376;9.708;2023-11-21T00:32:41;8.60;99.90
28438;DHT22;15667;52.376;9.708;2023-11-21T00:35:07;8.50;99.90
28438;DHT22;15667;52.376;9.708;2023-11-21T00:37:33;8.60;99.90
28438;DHT22;15667;52.376;9.708;2023-11-21T00:39:59;8.60;99.90
28438;DHT22;15667;52.376;9.708;2023-11-21T00:42:24;8.50;99.90
28438;DHT22;15667;52.376;9.708;2023-11-21T00:44:50;8.50;99.90
28438;DHT22;15667;52.376;9.708;2023-11-21T00:47:16;8.50;99.90
28438;DHT22;15667;52.376;9.708;2023-11-21T00:49:42;8.50;99.90
28438;DHT22;15667;52.376;9.708;2023-11-21T00:52:09;8.50;99.90
28438;DHT22;15667;52.376;9.708;2023-11-21T00:54:35;8.50;99.90
28438;DHT22;15667;52.376;9.708;2023-11-21T00:57:01;8.50;99.90
28438;DHT22;15667;52.376;9.708;2023-11-21T00:59:27;8.50;99.90
28438;DHT22;15667;52.376;9.708;2023-11-21T01:01:52;8.50;99.90
28438;DHT22;15667;52.376;9.708;2023-11-21T01:04:19;8.50;99.90
28438;DHT22;15667;52.376;9.708;2023-11-21T01:06:45;8.60;99.90
28438;DHT22;15667;52.376;9.708;2023-11-21T01:09:10;8.90;99.90
28438;DHT22;15667;52.376;9.708;2023-11-21T01:11:36;8.60;99.90
28438;DHT22;15667;52.376;9.708;2023-11-21T01:14:03;8.50;99.90
28438;DHT22;15667;52.376;9.708;2023-11-21T01:16:29;8.50;99.90
28438;DHT22;15667;52.376;9.708;2023-11-21T01:18:55;8.60;99.90
28438;DHT22;15667;52.376;9.708;2023-11-21T01:21:21;8.50;99.90
28438;DHT22;15667;52.376;9.708;2023-11-21T01:23:47;8.50;99.90
28438;DHT22;15667;52.376;9.708;2023-11-21T01:26:13;8.50;99.90
28438;DHT22;15667;52.376;9.708;2023-11-21T01:28:38;8.50;99.90
28438;DHT22;15667;52.376;9.708;2023-11-21T01:31:04;8.50;99.90
28438;DHT22;15667;52.376;9.708;2023-11-21T01:33:29;8.50;99.90
28438;DHT22;15667;52.376;9.708;2023-11-21T01:35:55;8.70;99.90
28438;DHT22;15667;52.376;9.708;2023-11-21T01:38:21;8.50;99.90
28438;DHT22;15667;52.376;9.708;2023-11-21T01:40:47;8.50;99.90
28438;DHT22;15667;52.376;9.708;2023-11-21T01:43:13;8.50;99.90
28438;DHT22;15667;52.376;9.708;2023-11-21T01:45:39;8.40;99.90
28438;DHT22;15667;52.376;9.708;2023-11-21T01:48:05;8.50;99.90
28438;DHT22;15667;52.376;9.708;2023-11-21T01:50:32;8.50;99.90
28438;DHT22;15667;52.376;9.708;2023-11-21T01:52:59;8.50;99.90
28438;DHT22;15667;52.376;9.708;2023-11-21T01:55:25;8.50;99.90
28438;DHT22;15667;52.376;9.708;2023-11-21T01:57:53;8.50;99.90
28438;DHT22;15667;52.376;9.708;2023-11-21T02:00:19;8.40;99.90
28438;DHT22;15667;52.376;9.708;2023-11-21T02:02:46;8.40;99.90
28438;DHT22;15667;52.376;9.708;2023-11-21T02:05:14;8.40;99.90
28438;DHT22;15667;52.376;9.708;2023-11-21T02:07:41;8.40;99.90
28438;DHT22;15667;52.376;9.708;2023-11-21T02:10:08;8.40;99.90
28438;DHT22;15667;52.376;9.708;2023-11-21T02:12:34;8.40;99.90
28438;DHT22;15667;52.376;9.708;2023-11-21T02:15:02;8.40;99.90
28438;DHT22;15667;52.376;9.708;2023-11-21T02:17:30;8.60;99.90
28438;DHT22;15667;52.376;9.708;2023-11-21T02:19:58;8.30;99.90
28438;DHT22;15667;52.376;9.708;2023-11-21T02:22:26;8.40;99.90
28438;DHT22;15667;52.376;9.708;2023-11-21T02:24:56;8.40;99.90
28438;DHT22;15667;52.376;9.708;2023-11-21T02:27:23;8.40;99.90
28438;DHT22;15667;52.376;9.708;2023-11-21T02:29:49;8.30;99.90
28438;DHT22;15667;52.376;9.708;2023-11-21T02:32:15;8.30;99.90
28438;DHT22;15667;52.376;9.708;2023-11-21T02:34:42;8.40;99.90
28438;DHT22;15667;52.376;9.708;2023-11-21T02:37:09;8.30;99.90
28438;DHT22;15667;52.376;9.708;2023-11-21T02:39:35;8.40;99.90
28438;DHT22;15667;52.376;9.708;2023-11-21T02:42:01;8.40;99.90
28438;DHT22;15667;52.376;9.708;2023-11-21T02:44:26;8.40;99.90
28438;DHT22;15667;52.376;9.708;2023-11-21T02:46:52;8.40;99.90
28438;DHT22;15667;52.376;9.708;2023-11-21T02:49:18;8.40;99.90
28438;DHT22;15667;52.376;9.708;2023-11-21T02:51:43;8.80;99.90
28438;DHT22;15667;52.376;9.708;2023-11-21T02:54:09;8.50;99.90
28438;DHT22;15667;52.376;9.708;2023-11-21T02:56:35;8.90;99.90
28438;DHT22;15667;52.376;9.708;2023-11-21T02:59:01;8.40;99.90
28438;DHT22;15667;52.376;9.708;2023-11-21T03:01:27;8.40;99.90
28438;DHT22;15667;52.376;9.708;2023-11-21T03:03:53;8.40;99.90
28438;DHT22;15667;52.376;9.708;2023-11-21T03:06:21;8.50;99.90
28438;DHT22;15667;52.376;9.708;2023-11-21T03:08:47;8.40;99.90
28438;DHT22;15667;52.376;9.708;2023-11-21T03:11:13;8.50;99.90
28438;DHT22;15667;52.376;9.708;2023-11-21T03:13:40;8.40;99.90
28438;DHT22;15667;52.376;9.708;2023-11-21T03:16:11;8.50;99.90
28438;DHT22;15667;52.376;9.708;2023-11-21T03:18:38;8.50;99.90
28438;DHT22;15667;52.376;9.708;2023-11-21T03:21:04;8.50;99.90
28438;DHT22;15667;52.376;9.708;2023-11-21T03:23:31;8.50;99.90
28438;DHT22;15667;52.376;9.708;2023-11-21T03:25:56;8.50;99.90
28438;DHT22;15667;52.376;9.708;2023-11-21T03:28:22;8.50;99.90
28438;DHT22;15667;52.376;9.708;2023-11-21T03:30:49;8.50;99.90
28438;DHT22;15667;52.376;9.708;2023-11-21T03:33:15;8.50;99.90
28438;DHT22;15667;52.376;9.708;2023-11-21T03:35:40;8.50;99.90
28438;DHT22;15667;52.376;9.708;2023-11-21T03:38:07;8.50;99.90
28438;DHT22;15667;52.376;9.708;2023-11-21T03:40:33;8.50;99.90
28438;DHT22;15667;52.376;9.708;2023-11-21T03:42:59;8.50;99.90
28438;DHT22;15667;52.376;9.708;2023-11-21T03:45:24;8.50;99.90
28438;DHT22;15667;52.376;9.708;2023-11-21T03:47:50;8.50;99.90
28438;DHT22;15667;52.376;9.708;2023-11-21T03:50:15;8.50;99.90
28438;DHT22;15667;52.376;9.708;2023-11-21T03:52:41;8.50;99.90
28438;DHT22;15667;52.376;9.708;2023-11-21T03:55:08;8.40;99.90
28438;DHT22;15667;52.376;9.708;2023-11-21T03:57:34;8.40;99.90
28438;DHT22;15667;52.376;9.708;2023-11-21T03:59:59;8.50;99.90
28438;DHT22;15667;52.376;9.708;2023-11-21T04:02:25;8.50;99.90
28438;DHT22;15667;52.376;9.708;2023-11-21T04:04:52;8.50;99.90
28438;DHT22;15667;52.376;9.708;2023-11-21T04:07:18;8.40;99.90
28438;DHT22;15667;52.376;9.708;2023-11-21T04:09:43;8.70;99.90
28438;DHT22;15667;52.376;9.708;2023-11-21T04:12:09;8.60;99.90
28438;DHT22;15667;52.376;9.708;2023-11-21T04:14:35;8.30;99.90
28438;DHT22;15667;52.376;9.708;2023-11-21T04:17:01;7.90;99.90
28438;DHT22;15667;52.376;9.708;2023-11-21T04:19:26;8.40;99.90
28438;DHT22;15667;52.376;9.708;2023-11-21T04:21:52;8.40;99.90
28438;DHT22;15667;52.376;9.708;2023-11-21T04:24:18;8.40;99.90
28438;DHT22;15667;52.376;9.708;2023-11-21T04:26:44;8.40;99.90
28438;DHT22;15667;52.376;9.708;2023-11-21T04:29:10;8.30;99.90
28438;DHT22;15667;52.376;9.708;2023-11-21T04:31:35;8.40;99.90
28438;DHT22;15667;52.376;9.708;2023-11-21T04:34:01;8.50;99.90
28438;DHT22;15667;52.376;9.708;2023-11-21T04:36:29;8.30;99.90
28438;DHT22;15667;52.376;9.708;2023-11-21T04:38:56;8.30;99.90
28438;DHT22;15667;52.376;9.708;2023-11-21T04:41:22;8.30;99.90
28438;DHT22;15667;52.376;9.708;2023-11-21T04:43:48;8.20;99.90
28438;DHT22;15667;52.376;9.708;2023-11-21T04:46:14;8.30;99.90
28438;DHT22;15667;52.376;9.708;2023-11-21T04:48:40;8.30;99.90
28438;DHT22;15667;52.376;9.708;2023-11-21T04:51:06;8.30;99.90
28438;DHT22;15667;52.376;9.708;2023-11-21T04:53:32;8.30;99.90
28438;DHT22;15667;52.376;9.708;2023-11-21T04:55:57;8.90;99.90
28438;DHT22;15667;52.376;9.708;2023-11-21T04:58:24;8.20;99.90
28438;DHT22;15667;52.376;9.708;2023-11-21T05:00:49;8.30;99.90
28438;DHT22;15667;52.376;9.708;2023-11-21T05:03:15;8.30;99.90
28438;DHT22;15667;52.376;9.708;2023-11-21T05:05:41;8.30;99.90
28438;DHT22;15667;52.376;9.708;2023-11-21T05:08:06;8.30;99.90
28438;DHT22;15667;52.376;9.708;2023-11-21T05:10:32;8.30;99.90
28438;DHT22;15667;52.376;9.708;2023-11-21T05:12:57;8.20;99.90
28438;DHT22;15667;52.376;9.708;2023-11-21T05:15:23;8.30;99.90
28438;DHT22;15667;52.376;9.708;2023-11-21T05:17:50;8.20;99.90
28438;DHT22;15667;52.376;9.708;2023-11-21T05:20:17;8.30;99.90
28438;DHT22;15667;52.376;9.708;2023-11-21T05:22:47;8.20;99.90
28438;DHT22;15667;52.376;9.708;2023-11-21T05:25:16;8.20;99.90
28438;DHT22;15667;52.376;9.708;2023-11-21T05:27:45;8.50;99.90
28438;DHT22;15667;52.376;9.708;2023-11-21T05:30:11;8.20;99.90
28438;DHT22;15667;52.376;9.708;2023-11-21T05:32:38;8.30;99.90
28438;DHT22;15667;52.376;9.708;2023-11-21T05:35:04;8.60;99.90
28438;DHT22;15667;52.376;9.708;2023-11-21T05:37:37;8.30;99.90
28438;DHT22;15667;52.376;9.708;2023-11-21T05:40:07;8.20;99.90
28438;DHT22;15667;52.376;9.708;2023-11-21T05:42:36;8.20;99.90
28438;DHT22;15667;52.376;9.708;2023-11-21T05:45:04;8.20;99.90
28438;DHT22;15667;52.376;9.708;2023-11-21T05:47:46;8.20;99.90
28438;DHT22;15667;52.376;9.708;2023-11-21T05:50:14;8.70;99.90
28438;DHT22;15667;52.376;9.708;2023-11-21T05:52:41;8.20;99.90
28438;DHT22;15667;52.376;9.708;2023-11-21T05:55:08;8.30;99.90
28438;DHT22;15667;52.376;9.708;2023-11-21T05:57:34;8.20;99.90
28438;DHT22;15667;52.376;9.708;2023-11-21T06:00:06;8.50;99.90
28438;DHT22;15667;52.376;9.708;2023-11-21T06:02:44;8.30;99.90
28438;DHT22;15667;52.376;9.708;2023-11-21T06:05:10;8.90;99.90
28438;DHT22;15667;52.376;9.708;2023-11-21T06:07:37;8.20;99.90
28438;DHT22;15667;52.376;9.708;2023-11-21T06:10:04;8.20;99.90
28438;DHT22;15667;52.376;9.708;2023-11-21T06:12:38;8.20;99.90
28438;DHT22;15667;52.376;9.708;2023-11-21T06:15:06;8.50;99.90
28438;DHT22;15667;52.376;9.708;2023-11-21T06:17:34;8.20;99.90
28438;DHT22;15667;52.376;9.708;2023-11-21T06:20:03;8.20;99.90
28438;DHT22;15667;52.376;9.708;2023-11-21T06:22:35;8.30;99.90
28438;DHT22;15667;52.376;9.708;2023-11-21T06:25:01;8.20;99.90
28438;DHT22;15667;52.376;9.708;2023-11-21T06:27:27;8.30;99.90
28438;DHT22;15667;52.376;9.708;2023-11-21T06:29:54;8.60;99.90
28438;DHT22;15667;52.376;9.708;2023-11-21T06:32:20;8.20;99.90
28438;DHT22;15667;52.376;9.708;2023-11-21T06:34:48;9.40;99.90
28438;DHT22;15667;52.376;9.708;2023-11-21T06:37:17;8.20;99.90
28438;DHT22;15667;52.376;9.708;2023-11-21T06:39:42;8.20;99.90
28438;DHT22;15667;52.376;9.708;2023-11-21T06:42:09;8.80;99.90
28438;DHT22;15667;52.376;9.708;2023-11-21T06:44:34;8.20;99.90
28438;DHT22;15667;52.376;9.708;2023-11-21T06:47:01;8.20;99.90
28438;DHT22;15667;52.376;9.708;2023-11-21T06:49:27;8.00;99.90
28438;DHT22;15667;52.376;9.708;2023-11-21T06:51:53;7.70;99.90
28438;DHT22;15667;52.376;9.708;2023-11-21T06:54:19;8.40;99.90
28438;DHT22;15667;52.376;9.708;2023-11-21T06:56:46;7.40;99.90
28438;DHT22;15667;52.376;9.708;2023-11-21T06:59:12;7.20;99.90
28438;DHT22;15667;52.376;9.708;2023-11-21T07:01:38;7.20;99.90
28438;DHT22;15667;52.376;9.708;2023-11-21T07:04:06;7.80;99.90
28438;DHT22;15667;52.376;9.708;2023-11-21T07:06:32;7.80;99.90
28438;DHT22;15667;52.376;9.708;2023-11-21T07:09:01;7.40;99.90
28438;DHT22;15667;52.376;9.708;2023-11-21T07:11:29;7.20;99.90
28438;DHT22;15667;52.376;9.708;2023-11-21T07:13:58;7.10;99.90
28438;DHT22;15667;52.376;9.708;2023-11-21T07:16:24;7.00;99.90
28438;DHT22;15667;52.376;9.708;2023-11-21T07:18:50;7.00;99.90
28438;DHT22;15667;52.376;9.708;2023-11-21T07:21:16;7.00;99.90
28438;DHT22;15667;52.376;9.708;2023-11-21T07:23:42;7.00;99.90
28438;DHT22;15667;52.376;9.708;2023-11-21T07:26:08;7.00;99.90
28438;DHT22;15667;52.376;9.708;2023-11-21T07:28:34;7.00;99.90
28438;DHT22;15667;52.376;9.708;2023-11-21T07:31:01;6.90;99.90
28438;DHT22;15667;52.376;9.708;2023-11-21T07:33:27;6.90;99.90
28438;DHT22;15667;52.376;9.708;2023-11-21T07:35:53;7.00;99.90
28438;DHT22;15667;52.376;9.708;2023-11-21T07:38:18;7.00;99.90
28438;DHT22;15667;52.376;9.708;2023-11-21T07:40:44;6.90;99.90
28438;DHT22;15667;52.376;9.708;2023-11-21T07:43:10;7.00;99.90
28438;DHT22;15667;52.376;9.708;2023-11-21T07:45:36;6.90;99.90
28438;DHT22;15667;52.376;9.708;2023-11-21T07:48:02;6.90;99.90
28438;DHT22;15667;52.376;9.708;2023-11-21T07:50:29;6.90;99.90
28438;DHT22;15667;52.376;9.708;2023-11-21T07:52:55;6.90;99.90
28438;DHT22;15667;52.376;9.708;2023-11-21T07:55:21;6.80;99.90
28438;DHT22;15667;52.376;9.708;2023-11-21T07:57:56;6.80;99.90
28438;DHT22;15667;52.376;9.708;2023-11-21T08:00:21;6.80;99.90
28438;DHT22;15667;52.376;9.708;2023-11-21T08:02:49;6.80;99.90
28438;DHT22;15667;52.376;9.708;2023-11-21T08:05:25;7.50;99.90
28438;DHT22;15667;52.376;9.708;2023-11-21T08:07:51;6.90;99.90
28438;DHT22;15667;52.376;9.708;2023-11-21T08:10:17;6.90;99.90
28438;DHT22;15667;52.376;9.708;2023-11-21T08:12:43;6.90;99.90
28438;DHT22;15667;52.376;9.708;2023-11-21T08:15:09;6.80;99.90
28438;DHT22;15667;52.376;9.708;2023-11-21T08:17:36;6.90;99.90
28438;DHT22;15667;52.376;9.708;2023-11-21T08:20:02;6.80;99.90
28438;DHT22;15667;52.376;9.708;2023-11-21T08:22:29;6.70;99.90
28438;DHT22;15667;52.376;9.708;2023-11-21T08:24:54;6.80;99.90
28438;DHT22;15667;52.376;9.708;2023-11-21T08:27:21;6.10;99.90
28438;DHT22;15667;52.376;9.708;2023-11-21T08:29:46;7.10;99.90
28438;DHT22;15667;52.376;9.708;2023-11-21T08:32:12;6.80;99.90
28438;DHT22;15667;52.376;9.708;2023-11-21T08:34:38;6.60;99.90
28438;DHT22;15667;52.376;9.708;2023-11-21T08:37:05;6.80;99.90
28438;DHT22;15667;52.376;9.708;2023-11-21T08:39:31;6.90;99.90
28438;DHT22;15667;52.376;9.708;2023-11-21T08:41:57;6.90;99.90
28438;DHT22;15667;52.376;9.708;2023-11-21T08:44:23;6.70;99.90
28438;DHT22;15667;52.376;9.708;2023-11-21T08:46:48;6.80;99.90
28438;DHT22;15667;52.376;9.708;2023-11-21T08:49:14;7.20;99.90
28438;DHT22;15667;52.376;9.708;2023-11-21T08:51:41;7.30;99.90
28438;DHT22;15667;52.376;9.708;2023-11-21T08:54:06;7.20;99.90
28438;DHT22;15667;52.376;9.708;2023-11-21T08:56:35;6.70;99.90
28438;DHT22;15667;52.376;9.708;2023-11-21T08:59:00;6.80;99.90
28438;DHT22;15667;52.376;9.708;2023-11-21T09:01:28;6.80;99.90
28438;DHT22;15667;52.376;9.708;2023-11-21T09:03:54;6.80;99.90
28438;DHT22;15667;52.376;9.708;2023-11-21T09:06:19;6.60;99.90
28438;DHT22;15667;52.376;9.708;2023-11-21T09:08:45;6.90;99.90
28438;DHT22;15667;52.376;9.708;2023-11-21T09:11:14;7.00;99.90
28438;DHT22;15667;52.376;9.708;2023-11-21T09:13:39;7.00;99.90
28438;DHT22;15667;52.376;9.708;2023-11-21T09:16:05;8.10;99.90
28438;DHT22;15667;52.376;9.708;2023-11-21T09:18:32;7.10;99.90
28438;DHT22;15667;52.376;9.708;2023-11-21T09:20:58;7.10;99.90
28438;DHT22;15667;52.376;9.708;2023-11-21T09:23:24;7.20;99.90
28438;DHT22;15667;52.376;9.708;2023-11-21T09:25:50;7.10;99.90
28438;DHT22;15667;52.376;9.708;2023-11-21T09:28:17;7.10;99.90
28438;DHT22;15667;52.376;9.708;2023-11-21T09:30:43;7.10;99.90
28438;DHT22;15667;52.376;9.708;2023-11-21T09:33:09;7.10;99.90
28438;DHT22;15667;52.376;9.708;2023-11-21T09:35:37;7.10;99.90
28438;DHT22;15667;52.376;9.708;2023-11-21T09:38:03;7.00;99.90
28438;DHT22;15667;52.376;9.708;2023-11-21T09:40:35;7.20;99.90
28438;DHT22;15667;52.376;9.708;2023-11-21T09:43:05;7.30;99.90
28438;DHT22;15667;52.376;9.708;2023-11-21T09:45:35;7.10;99.90
28438;DHT22;15667;52.376;9.708;2023-11-21T09:48:01;6.90;99.90
28438;DHT22;15667;52.376;9.708;2023-11-21T09:50:28;7.10;99.90
28438;DHT22;15667;52.376;9.708;2023-11-21T09:55:46;7.20;99.90
28438;DHT22;15667;52.376;9.708;2023-11-21T09:58:13;7.20;99.90
28438;DHT22;15667;52.376;9.708;2023-11-21T10:00:44;7.20;99.90
28438;DHT22;15667;52.376;9.708;2023-11-21T10:03:10;7.20;99.90
28438;DHT22;15667;52.376;9.708;2023-11-21T10:05:38;7.20;99.90
28438;DHT22;15667;52.376;9.708;2023-11-21T10:08:09;7.20;99.90
28438;DHT22;15667;52.376;9.708;2023-11-21T10:10:36;7.20;99.90
28438;DHT22;15667;52.376;9.708;2023-11-21T10:13:04;7.30;99.90
28438;DHT22;15667;52.376;9.708;2023-11-21T10:15:36;7.30;99.90
28438;DHT22;15667;52.376;9.708;2023-11-21T10:18:07;7.90;99.90
28438;DHT22;15667;52.376;9.708;2023-11-21T10:20:33;7.30;99.90
28438;DHT22;15667;52.376;9.708;2023-11-21T10:23:00;7.30;99.90
28438;DHT22;15667;52.376;9.708;2023-11-21T10:25:30;7.30;99.90
28438;DHT22;15667;52.376;9.708;2023-11-21T10:28:01;7.30;99.90
28438;DHT22;15667;52.376;9.708;2023-11-21T10:30:34;7.40;99.90
28438;DHT22;15667;52.376;9.708;2023-11-21T10:33:07;7.20;99.90
28438;DHT22;15667;52.376;9.708;2023-11-21T10:35:43;7.30;99.90
28438;DHT22;15667;52.376;9.708;2023-11-21T10:38:15;7.90;99.90
28438;DHT22;15667;52.376;9.708;2023-11-21T10:40:41;7.30;99.90
28438;DHT22;15667;52.376;9.708;2023-11-21T10:43:08;7.40;99.90
28438;DHT22;15667;52.376;9.708;2023-11-21T10:45:39;7.40;99.90
28438;DHT22;15667;52.376;9.708;2023-11-21T10:48:14;7.40;99.90
28438;DHT22;15667;52.376;9.708;2023-11-21T10:50:46;7.40;99.90
28438;DHT22;15667;52.376;9.708;2023-11-21T10:53:12;7.40;99.90
28438;DHT22;15667;52.376;9.708;2023-11-21T10:55:39;7.40;99.90
28438;DHT22;15667;52.376;9.708;2023-11-21T10:58:05;7.40;99.90
28438;DHT22;15667;52.376;9.708;2023-11-21T11:00:32;7.40;99.90
28438;DHT22;15667;52.376;9.708;2023-11-21T11:02:59;7.50;99.90
28438;DHT22;15667;52.376;9.708;2023-11-21T11:05:29;7.40;99.90
28438;DHT22;15667;52.376;9.708;2023-11-21T11:08:05;7.30;99.90
28438;DHT22;15667;52.376;9.708;2023-11-21T11:10:31;7.30;99.90
28438;DHT22;15667;52.376;9.708;2023-11-21T11:12:58;7.40;99.90
28438;DHT22;15667;52.376;9.708;2023-11-21T11:15:28;7.50;99.90
28438;DHT22;15667;52.376;9.708;2023-11-21T11:17:54;7.60;99.90
28438;DHT22;15667;52.376;9.708;2023-11-21T11:20:25;7.50;99.90
28438;DHT22;15667;52.376;9.708;2023-11-21T11:25:50;7.60;99.90
28438;DHT22;15667;52.376;9.708;2023-11-21T11:28:29;7.70;99.90
28438;DHT22;15667;52.376;9.708;2023-11-21T11:31:17;7.70;99.90
28438;DHT22;15667;52.376;9.708;2023-11-21T11:33:58;7.70;99.90
28438;DHT22;15667;52.376;9.708;2023-11-21T11:36:36;8.30;99.90
28438;DHT22;15667;52.376;9.708;2023-11-21T11:39:04;8.10;99.90
28438;DHT22;15667;52.376;9.708;2023-11-21T11:41:50;7.90;99.90
28438;DHT22;15667;52.376;9.708;2023-11-21T11:47:31;7.60;99.90
28438;DHT22;15667;52.376;9.708;2023-11-21T11:52:38;7.70;99.90
28438;DHT22;15667;52.376;9.708;2023-11-21T11:55:15;8.10;99.90
28438;DHT22;15667;52.376;9.708;2023-11-21T11:57:50;7.60;99.90
28438;DHT22;15667;52.376;9.708;2023-11-21T12:00:19;7.50;99.90
28438;DHT22;15667;52.376;9.708;2023-11-21T12:02:54;7.50;99.90
28438;DHT22;15667;52.376;9.708;2023-11-21T12:05:21;7.50;99.90
28438;DHT22;15667;52.376;9.708;2023-11-21T12:07:49;7.70;99.90
28438;DHT22;15667;52.376;9.708;2023-11-21T12:10:16;7.60;99.90
28438;DHT22;15667;52.376;9.708;2023-11-21T12:12:50;8.40;99.90
28438;DHT22;15667;52.376;9.708;2023-11-21T12:15:18;7.80;99.90
28438;DHT22;15667;52.376;9.708;2023-11-21T12:17:44;7.60;99.90
28438;DHT22;15667;52.376;9.708;2023-11-21T12:20:14;8.50;99.90
28438;DHT22;15667;52.376;9.708;2023-11-21T12:22:50;7.50;99.90
28438;DHT22;15667;52.376;9.708;2023-11-21T12:25:20;7.70;99.90
28438;DHT22;15667;52.376;9.708;2023-11-21T12:27:48;7.50;99.90
28438;DHT22;15667;52.376;9.708;2023-11-21T12:30:16;7.80;99.90
28438;DHT22;15667;52.376;9.708;2023-11-21T12:32:43;7.40;99.90
28438;DHT22;15667;52.376;9.708;2023-11-21T12:35:10;7.40;99.90
28438;DHT22;15667;52.376;9.708;2023-11-21T12:37:38;7.50;99.90
28438;DHT22;15667;52.376;9.708;2023-11-21T12:40:08;7.00;99.90
28438;DHT22;15667;52.376;9.708;2023-11-21T12:42:37;7.40;99.90
28438;DHT22;15667;52.376;9.708;2023-11-21T12:45:22;7.30;99.90
28438;DHT22;15667;52.376;9.708;2023-11-21T12:47:50;7.20;99.90
28438;DHT22;15667;52.376;9.708;2023-11-21T12:50:26;7.20;99.90
28438;DHT22;15667;52.376;9.708;2023-11-21T12:53:11;7.80;99.90
28438;DHT22;15667;52.376;9.708;2023-11-21T12:55:43;7.40;99.90
28438;DHT22;15667;52.376;9.708;2023-11-21T12:58:09;7.60;99.90
28438;DHT22;15667;52.376;9.708;2023-11-21T13:00:46;7.50;99.90
28438;DHT22;15667;52.376;9.708;2023-11-21T13:03:14;7.50;99.90
28438;DHT22;15667;52.376;9.708;2023-11-21T13:05:45;7.40;99.90
28438;DHT22;15667;52.376;9.708;2023-11-21T13:08:12;7.40;99.90
28438;DHT22;15667;52.376;9.708;2023-11-21T13:10:43;7.70;99.90
28438;DHT22;15667;52.376;9.708;2023-11-21T13:13:13;7.40;99.90
28438;DHT22;15667;52.376;9.708;2023-11-21T13:15:49;7.40;99.90
28438;DHT22;15667;52.376;9.708;2023-11-21T13:18:15;7.40;99.90
28438;DHT22;15667;52.376;9.708;2023-11-21T13:20:41;7.50;99.90
28438;DHT22;15667;52.376;9.708;2023-11-21T13:23:09;7.50;99.90
28438;DHT22;15667;52.376;9.708;2023-11-21T13:25:45;7.70;99.90
28438;DHT22;15667;52.376;9.708;2023-11-21T13:28:31;7.60;99.90
28438;DHT22;15667;52.376;9.708;2023-11-21T13:31:04;7.50;99.90
28438;DHT22;15667;52.376;9.708;2023-11-21T13:33:47;7.40;99.90
28438;DHT22;15667;52.376;9.708;2023-11-21T13:36:20;7.40;99.90
28438;DHT22;15667;52.376;9.708;2023-11-21T13:38:49;7.50;99.90
28438;DHT22;15667;52.376;9.708;2023-11-21T13:41:15;7.40;99.90
28438;DHT22;15667;52.376;9.708;2023-11-21T13:43:42;7.40;99.90
28438;DHT22;15667;52.376;9.708;2023-11-21T13:46:13;7.50;99.90
28438;DHT22;15667;52.376;9.708;2023-11-21T13:48:42;7.30;99.90
28438;DHT22;15667;52.376;9.708;2023-11-21T13:51:13;7.30;99.90
28438;DHT22;15667;52.376;9.708;2023-11-21T13:53:46;7.80;99.90
28438;DHT22;15667;52.376;9.708;2023-11-21T13:56:15;8.00;99.90
28438;DHT22;15667;52.376;9.708;2023-11-21T13:58:45;7.80;99.90
28438;DHT22;15667;52.376;9.708;2023-11-21T14:01:16;7.00;99.90
28438;DHT22;15667;52.376;9.708;2023-11-21T14:04:04;7.70;99.90
28438;DHT22;15667;52.376;9.708;2023-11-21T14:06:51;7.30;99.90
28438;DHT22;15667;52.376;9.708;2023-11-21T14:09:21;7.30;99.90
28438;DHT22;15667;52.376;9.708;2023-11-21T14:11:52;7.30;99.90
28438;DHT22;15667;52.376;9.708;2023-11-21T14:14:19;7.90;99.90
28438;DHT22;15667;52.376;9.708;2023-11-21T14:16:46;7.30;99.90
28438;DHT22;15667;52.376;9.708;2023-11-21T14:19:12;7.20;99.90
28438;DHT22;15667;52.376;9.708;2023-11-21T14:21:44;7.20;99.90
28438;DHT22;15667;52.376;9.708;2023-11-21T14:24:11;7.20;99.90
28438;DHT22;15667;52.376;9.708;2023-11-21T14:26:40;7.10;99.90
28438;DHT22;15667;52.376;9.708;2023-11-21T14:29:06;7.10;99.90
28438;DHT22;15667;52.376;9.708;2023-11-21T14:31:31;7.50;99.90
28438;DHT22;15667;52.376;9.708;2023-11-21T14:33:57;7.30;99.90
28438;DHT22;15667;52.376;9.708;2023-11-21T14:36:23;6.70;99.90
28438;DHT22;15667;52.376;9.708;2023-11-21T14:39:12;7.30;99.90
28438;DHT22;15667;52.376;9.708;2023-11-21T14:42:04;7.00;99.90
28438;DHT22;15667;52.376;9.708;2023-11-21T14:44:33;6.90;99.90
28438;DHT22;15667;52.376;9.708;2023-11-21T14:47:04;6.90;99.90
28438;DHT22;15667;52.376;9.708;2023-11-21T14:49:32;6.90;99.90
28438;DHT22;15667;52.376;9.708;2023-11-21T14:52:20;6.90;99.90
28438;DHT22;15667;52.376;9.708;2023-11-21T14:54:59;6.80;99.90
28438;DHT22;15667;52.376;9.708;2023-11-21T14:57:45;7.80;99.90
28438;DHT22;15667;52.376;9.708;2023-11-21T15:00:19;8.10;99.90
28438;DHT22;15667;52.376;9.708;2023-11-21T15:03:00;6.70;99.90
28438;DHT22;15667;52.376;9.708;2023-11-21T15:08:17;6.80;99.90
28438;DHT22;15667;52.376;9.708;2023-11-21T15:11:33;6.60;99.90
28438;DHT22;15667;52.376;9.708;2023-11-21T15:13:59;6.50;99.90
28438;DHT22;15667;52.376;9.708;2023-11-21T15:16:51;6.50;99.90
28438;DHT22;15667;52.376;9.708;2023-11-21T15:19:31;6.50;99.90
28438;DHT22;15667;52.376;9.708;2023-11-21T15:25:32;6.50;99.90
28438;DHT22;15667;52.376;9.708;2023-11-21T15:28:09;6.60;99.90
28438;DHT22;15667;52.376;9.708;2023-11-21T15:37:18;6.50;99.90
28438;DHT22;15667;52.376;9.708;2023-11-21T15:40:06;6.70;99.90
28438;DHT22;15667;52.376;9.708;2023-11-21T15:46:00;6.40;99.90
28438;DHT22;15667;52.376;9.708;2023-11-21T15:48:58;6.50;99.90
28438;DHT22;15667;52.376;9.708;2023-11-21T15:51:53;6.40;99.90
28438;DHT22;15667;52.376;9.708;2023-11-21T16:05:05;6.30;99.90
28438;DHT22;15667;52.376;9.708;2023-11-21T16:11:17;6.30;99.90
28438;DHT22;15667;52.376;9.708;2023-11-21T16:14:07;6.60;99.90
28438;DHT22;15667;52.376;9.708;2023-11-21T16:17:03;6.30;99.90
28438;DHT22;15667;52.376;9.708;2023-11-21T16:22:52;6.30;99.90
28438;DHT22;15667;52.376;9.708;2023-11-21T16:25:39;6.30;99.90
28438;DHT22;15667;52.376;9.708;2023-11-21T16:28:27;6.20;99.90
28438;DHT22;15667;52.376;9.708;2023-11-21T18:43:35;5.90;99.90
28438;DHT22;15667;52.376;9.708;2023-11-21T18:46:01;5.90;99.90
28438;DHT22;15667;52.376;9.708;2023-11-21T18:48:45;5.80;99.90
28438;DHT22;15667;52.376;9.708;2023-11-21T18:51:14;5.80;99.90
28438;DHT22;15667;52.376;9.708;2023-11-21T18:53:46;6.10;99.90